aviador You're here:

FSIA Decoded Metar

MAHE in SEYCHELLES
Report Time2017-10-17 20:00:00
UTC Time2017-10-17 20:36:40
Flight Rules vfr VFR
Wind130° at 09 kt
W.Decomp.*RWY 13: 9.0 kt HW 0.8 kt RCW
W.Rank130° ranks 3
Current wind is below 130° avg. (9.2)
Visibility9999 m
Phenomena:N/A
Clouds:Scattered 017 Hf
Expected CloudBase > 2,000 ft AGL from Temp-Dew spread
CeilingNone
Temp28°C (ISA +13)
Dew Point23°C (74% RH)
Heat Index31.2°C
QNH1011 hPa
Density Alt1,946 ft
Elevation10 ft
Report Wrong Elevation
Raw Report
FSIA 172000Z 13009KT 9999 SCT017 28/23 Q1011 NOSIG=

Extra information for FSIA:More info

Metar Taf Metar & Taf Last 4 Metars F.Rules Stats Wind Profile Meteogram Temp Stats Airport Information Weather charts Add Link Nearby VenuesMetar ALERT Operation Metar Decoded Social comments